KMLI/MLI METAR and TAF weather

Enter ICAO airport designator
Station Type Date Time Source
KMLI METAR 2021/09/19 13:52 UTC NOAA

KMLI 191352Z 09003KT 10SM CLR 21/17 A3009 RMK AO2 SLP186 T02110172


Station Type Date Time Source
KMLI Decoded METAR 2021/09/19 13:52 UTC NOAA

MOLINE QUAD-CITY AIRPORT, IL, United States (KMLI) 41-27N 90-31W 184M
Sep 19, 2021 - 09:52 AM EDT / 2021.09.19 1352 UTC
Wind: from the E (090 degrees) at 3 MPH (3 KT):0
Visibility: 10 mile(s):0
Sky conditions: clear
Temperature: 70.0 F (21.1 C)
Dew Point: 63.0 F (17.2 C)
Relative Humidity: 78%
Pressure (altimeter): 30.09 in. Hg (1018 hPa)
ob: KMLI 191352Z 09003KT 10SM CLR 21/17 A3009 RMK AO2 SLP186 T02110172
cycle: 14

Station Type Date Time Source
KMLI TAF 2021/09/19 12:27 UTC NOAA

TAF KMLI 191125Z 1912/2012 10004KT P6SM SKC
FM191700 17008KT P6SM SCT040
FM200000 14005KT P6SM SKC

Example: see airport list